Farmerville, Louisiana
Current Conditions -  °F | °C
As of 12:55 PM on Tuesday 27 Jan 2015 (Local Time) from KRSN Reporting Station
Clear Clear  
Wind Chill: 71°   Ceiling: Unl
Heat Index: 71°   Visibility: 10mi
Dew Point: 36°   Wind: 3mph
Humidity: 28%   Direction: 70°ENE
Pressure: 30.16"   Gusts: NA
Location:  32.77°N, 92.41°W
Report Text: KRSN 271855Z AUTO 07003KT 10SM CLR 21/02 A3016 RMK AO2 T02140021
Loading
Personal Weather Stations






























Interactive Weather Map New forecast layout! Learn more

10-Day Weather Forecast

Advertisements
Track Severe Weather on mobile